createdAt,value
2018-04-28T00:00:23.229Z,0.00
2018-04-28T00:01:23.219Z,0.00
2018-04-28T00:02:23.200Z,0.00
2018-04-28T00:03:23.194Z,0.00
2018-04-28T00:04:23.165Z,0.00
2018-04-28T00:05:23.149Z,0.00
2018-04-28T00:06:23.139Z,0.00
2018-04-28T00:07:23.119Z,0.00
2018-04-28T00:08:23.105Z,0.00
2018-04-28T00:09:23.094Z,0.00
2018-04-28T00:10:23.072Z,0.00
2018-04-28T00:11:23.060Z,0.00
2018-04-28T00:12:23.047Z,0.00
2018-04-28T00:13:23.028Z,0.00
2018-04-28T00:14:23.016Z,0.00
2018-04-28T00:15:23.005Z,0.00
2018-04-28T00:16:22.979Z,0.00
2018-04-28T00:17:22.970Z,0.00
2018-04-28T00:18:22.950Z,0.00
2018-04-28T00:19:22.928Z,0.00
2018-04-28T00:20:22.919Z,0.00
2018-04-28T00:21:22.902Z,0.00
2018-04-28T00:22:22.893Z,0.00
2018-04-28T00:23:22.869Z,0.00
2018-04-28T00:24:22.849Z,0.00
2018-04-28T00:25:22.833Z,0.00
2018-04-28T00:26:22.819Z,0.00
2018-04-28T00:27:22.819Z,0.00
2018-04-28T00:28:22.796Z,0.00
2018-04-28T00:29:22.779Z,0.00
2018-04-28T00:30:22.765Z,0.00
2018-04-28T00:31:22.762Z,0.00
2018-04-28T00:32:22.736Z,0.00
2018-04-28T00:33:22.713Z,0.00
2018-04-28T00:34:22.693Z,0.00
2018-04-28T00:35:22.688Z,0.00
2018-04-28T00:36:22.668Z,0.00
2018-04-28T00:37:22.663Z,0.00
2018-04-28T00:38:22.629Z,0.00
2018-04-28T00:39:22.619Z,0.00
2018-04-28T00:40:22.597Z,0.00
2018-04-28T00:41:22.589Z,0.00
2018-04-28T00:42:22.567Z,0.00
2018-04-28T00:43:22.547Z,0.00
2018-04-28T00:44:22.538Z,0.00
2018-04-28T00:45:22.515Z,0.00
2018-04-28T00:46:22.503Z,0.00
2018-04-28T00:47:22.488Z,0.00
2018-04-28T00:48:22.479Z,0.00
2018-04-28T00:49:22.454Z,0.00
2018-04-28T00:50:22.436Z,0.00
2018-04-28T00:51:22.497Z,0.00
2018-04-28T00:52:22.409Z,0.00
2018-04-28T00:53:22.387Z,0.00
2018-04-28T00:54:22.380Z,0.00
2018-04-28T00:55:22.359Z,0.00
2018-04-28T00:56:22.340Z,0.00
2018-04-28T00:57:22.326Z,0.00
2018-04-28T00:58:22.441Z,0.00
2018-04-28T00:59:22.298Z,0.00
2018-04-28T01:00:22.282Z,0.00
2018-04-28T01:01:22.263Z,0.00
2018-04-28T01:02:22.252Z,0.00
2018-04-28T01:03:22.228Z,0.00
2018-04-28T01:04:22.215Z,0.00
2018-04-28T01:05:22.201Z,0.00
2018-04-28T01:06:22.181Z,0.00
2018-04-28T01:07:22.168Z,0.00
2018-04-28T01:08:22.150Z,0.00
2018-04-28T01:09:22.138Z,0.00
2018-04-28T01:10:22.118Z,0.00
2018-04-28T01:11:22.106Z,0.00
2018-04-28T01:12:22.086Z,0.00
2018-04-28T01:13:22.068Z,0.00
2018-04-28T01:14:22.051Z,0.00
2018-04-28T01:15:22.036Z,0.00
2018-04-28T01:16:22.019Z,0.00
2018-04-28T01:17:22.011Z,0.00
2018-04-28T01:18:21.991Z,0.00
2018-04-28T01:19:21.971Z,0.00
2018-04-28T01:20:21.969Z,0.00
2018-04-28T01:21:21.939Z,0.00
2018-04-28T01:22:21.930Z,0.00
2018-04-28T01:23:21.914Z,0.00
2018-04-28T01:24:21.898Z,0.00
2018-04-28T01:25:21.875Z,0.00
2018-04-28T01:26:21.859Z,0.00
2018-04-28T01:27:21.849Z,0.00
2018-04-28T01:28:21.827Z,0.00
2018-04-28T01:29:21.814Z,0.00
2018-04-28T01:30:21.797Z,0.00
2018-04-28T01:31:21.781Z,0.00
2018-04-28T01:32:21.766Z,0.00
2018-04-28T01:33:21.757Z,0.00
2018-04-28T01:34:21.731Z,0.00
2018-04-28T01:35:21.715Z,0.00
2018-04-28T01:36:21.698Z,0.00
2018-04-28T01:37:21.683Z,0.00
2018-04-28T01:38:21.669Z,0.00
2018-04-28T01:39:21.651Z,0.00
2018-04-28T01:40:21.639Z,0.00
2018-04-28T01:41:21.621Z,0.00
2018-04-28T01:42:21.610Z,0.00
2018-04-28T01:43:21.599Z,0.00
2018-04-28T01:44:21.570Z,0.00
2018-04-28T01:45:21.561Z,0.00
2018-04-28T01:46:21.640Z,0.00
2018-04-28T01:47:21.536Z,0.00
2018-04-28T01:48:21.508Z,0.00
2018-04-28T01:49:21.535Z,0.00
2018-04-28T01:50:21.508Z,0.00
2018-04-28T01:51:21.481Z,0.00
2018-04-28T01:52:21.545Z,0.00
2018-04-28T01:53:21.429Z,0.00
2018-04-28T01:54:21.419Z,0.00
2018-04-28T01:55:21.395Z,0.00
2018-04-28T01:56:21.380Z,0.00
2018-04-28T01:57:21.360Z,0.00
2018-04-28T01:58:21.396Z,0.00
2018-04-28T01:59:21.331Z,0.00
2018-04-28T02:00:21.365Z,0.00
2018-04-28T02:01:21.299Z,0.00
2018-04-28T02:02:21.333Z,0.00
2018-04-28T02:03:21.269Z,0.00
2018-04-28T02:04:21.249Z,0.00
2018-04-28T02:05:21.237Z,0.00
2018-04-28T02:06:21.221Z,0.00
2018-04-28T02:07:21.207Z,0.00
2018-04-28T02:08:21.189Z,0.00
2018-04-28T02:09:21.169Z,0.00
2018-04-28T02:10:21.159Z,0.00
2018-04-28T02:11:21.140Z,0.00
2018-04-28T02:12:21.128Z,0.00
2018-04-28T02:13:21.104Z,0.00
2018-04-28T02:14:21.098Z,0.00
2018-04-28T02:15:21.072Z,0.00
2018-04-28T02:16:21.056Z,0.00
2018-04-28T02:17:21.040Z,0.00
2018-04-28T02:18:21.026Z,0.00
2018-04-28T02:19:21.013Z,0.00
2018-04-28T02:20:20.993Z,0.00
2018-04-28T02:21:20.975Z,0.00
2018-04-28T02:22:20.959Z,0.00
2018-04-28T02:23:20.945Z,0.00
2018-04-28T02:24:20.928Z,0.00
2018-04-28T02:25:20.920Z,0.00
2018-04-28T02:26:20.900Z,0.00
2018-04-28T02:27:20.881Z,0.00
2018-04-28T02:28:20.868Z,0.00
2018-04-28T02:29:20.850Z,0.00
2018-04-28T02:30:20.831Z,0.00
2018-04-28T02:31:20.820Z,0.00
2018-04-28T02:32:20.800Z,0.00
2018-04-28T02:33:20.786Z,0.00
2018-04-28T02:34:20.768Z,0.00
2018-04-28T02:35:20.757Z,0.00
2018-04-28T02:36:20.743Z,0.00
2018-04-28T02:37:20.725Z,0.00
2018-04-28T02:38:20.710Z,0.00
2018-04-28T02:39:20.693Z,0.00
2018-04-28T02:40:20.670Z,0.00
2018-04-28T02:41:20.661Z,0.00
2018-04-28T02:42:20.642Z,0.00
2018-04-28T02:43:20.629Z,0.00
2018-04-28T02:44:20.629Z,0.00
2018-04-28T02:45:20.591Z,0.00
2018-04-28T02:46:20.581Z,0.00
2018-04-28T02:47:20.563Z,0.00
2018-04-28T02:48:20.540Z,0.00
2018-04-28T02:49:20.582Z,0.00
2018-04-28T02:50:20.508Z,0.00
2018-04-28T02:51:20.495Z,0.00
2018-04-28T02:52:20.479Z,0.00
2018-04-28T02:53:20.463Z,0.00
2018-04-28T02:54:20.449Z,0.00
2018-04-28T02:55:20.440Z,0.00
2018-04-28T02:56:20.420Z,0.00
2018-04-28T02:57:20.399Z,0.00
2018-04-28T02:58:20.380Z,0.00
2018-04-28T02:59:20.371Z,0.00
2018-04-28T03:00:20.348Z,0.00
2018-04-28T03:01:20.349Z,0.00
2018-04-28T03:02:20.323Z,0.00
2018-04-28T03:03:20.300Z,0.00
2018-04-28T03:04:20.285Z,0.00
2018-04-28T03:05:20.270Z,0.00
2018-04-28T03:06:20.253Z,0.00
2018-04-28T03:07:20.253Z,0.00
2018-04-28T03:08:20.220Z,0.00
2018-04-28T03:09:20.206Z,0.00
2018-04-28T03:10:20.187Z,0.00
2018-04-28T03:11:20.170Z,0.00
2018-04-28T03:12:20.158Z,0.00
2018-04-28T03:13:20.139Z,0.00
2018-04-28T03:14:20.124Z,0.00
2018-04-28T03:15:20.110Z,0.00
2018-04-28T03:16:20.093Z,0.00
2018-04-28T03:17:20.077Z,0.00
2018-04-28T03:18:20.061Z,0.00
2018-04-28T03:19:20.045Z,0.00
2018-04-28T03:20:20.035Z,0.00
2018-04-28T03:21:20.021Z,0.00
2018-04-28T03:22:20.000Z,0.00
2018-04-28T03:23:19.978Z,0.00
2018-04-28T03:24:20.034Z,0.00
2018-04-28T03:25:19.952Z,0.00
2018-04-28T03:26:19.930Z,0.00
2018-04-28T03:27:19.919Z,0.00
2018-04-28T03:28:19.899Z,0.00
2018-04-28T03:29:19.886Z,0.00
2018-04-28T03:30:19.869Z,0.00
2018-04-28T03:31:19.850Z,0.00
2018-04-28T03:32:19.834Z,0.00
2018-04-28T03:33:19.827Z,0.00
2018-04-28T03:34:19.810Z,4.00
2018-04-28T03:35:19.791Z,0.00
2018-04-28T03:36:19.773Z,0.00
2018-04-28T03:37:19.880Z,4.00
2018-04-28T03:38:19.738Z,4.00
2018-04-28T03:39:19.726Z,4.00
2018-04-28T03:40:19.710Z,4.00
2018-04-28T03:41:19.697Z,4.00
2018-04-28T03:42:19.681Z,4.00
2018-04-28T03:43:19.667Z,8.00
2018-04-28T03:44:19.648Z,8.00
2018-04-28T03:45:19.630Z,8.00
2018-04-28T03:46:19.610Z,8.00
2018-04-28T03:47:19.597Z,12.00
2018-04-28T03:48:19.581Z,16.00
2018-04-28T03:49:19.580Z,16.00
2018-04-28T03:50:19.560Z,16.00
2018-04-28T03:51:19.539Z,20.00
2018-04-28T03:52:19.521Z,24.00
2018-04-28T03:53:19.650Z,24.00
2018-04-28T03:54:19.502Z,28.00
2018-04-28T03:55:19.467Z,32.00
2018-04-28T03:56:19.450Z,36.00
2018-04-28T03:57:19.492Z,40.00
2018-04-28T03:58:19.424Z,48.00
2018-04-28T03:59:19.510Z,52.00
2018-04-28T04:00:19.386Z,60.00
2018-04-28T04:01:19.470Z,72.00
2018-04-28T04:02:19.361Z,76.00
2018-04-28T04:03:19.444Z,84.00
2018-04-28T04:04:19.327Z,88.00
2018-04-28T04:05:19.360Z,100.00
2018-04-28T04:06:19.289Z,104.00
2018-04-28T04:07:19.284Z,116.00
2018-04-28T04:08:19.259Z,124.00
2018-04-28T04:09:19.240Z,136.00
2018-04-28T04:10:19.229Z,144.00
2018-04-28T04:11:19.220Z,160.00
2018-04-28T04:12:19.198Z,168.00
2018-04-28T04:13:19.179Z,184.00
2018-04-28T04:14:19.168Z,196.00
2018-04-28T04:15:19.149Z,212.00
2018-04-28T04:16:19.128Z,228.00
2018-04-28T04:17:19.120Z,244.00
2018-04-28T04:18:19.172Z,260.00
2018-04-28T04:19:19.080Z,280.00
2018-04-28T04:20:19.069Z,296.00
2018-04-28T04:21:19.053Z,316.00
2018-04-28T04:22:19.039Z,340.00
2018-04-28T04:23:19.018Z,372.00
2018-04-28T04:24:19.004Z,396.00
2018-04-28T04:25:18.986Z,432.00
2018-04-28T04:26:18.971Z,464.00
2018-04-28T04:27:18.956Z,496.00
2018-04-28T04:28:18.940Z,528.00
2018-04-28T04:29:18.919Z,560.00
2018-04-28T04:30:18.908Z,592.00
2018-04-28T04:31:18.888Z,636.00
2018-04-28T04:32:18.885Z,692.00
2018-04-28T04:33:18.858Z,748.00
2018-04-28T04:34:18.845Z,800.00
2018-04-28T04:35:18.828Z,852.00
2018-04-28T04:36:18.808Z,900.00
2018-04-28T04:37:18.794Z,948.00
2018-04-28T04:38:18.793Z,1000.00
2018-04-28T04:39:18.760Z,1048.00
2018-04-28T04:40:18.748Z,1092.00
2018-04-28T04:41:18.730Z,1120.00
2018-04-28T04:42:18.719Z,1144.00
2018-04-28T04:43:18.708Z,1160.00
2018-04-28T04:44:18.689Z,1164.00
2018-04-28T04:45:18.668Z,1180.00
2018-04-28T04:46:18.649Z,1200.00
2018-04-28T04:47:18.645Z,1228.00
2018-04-28T04:48:18.619Z,1252.00
2018-04-28T04:49:18.604Z,1284.00
2018-04-28T04:50:18.588Z,1320.00
2018-04-28T04:51:18.569Z,1360.00
2018-04-28T04:52:18.561Z,1404.00
2018-04-28T04:53:18.537Z,1436.00
2018-04-28T04:54:18.521Z,1480.00
2018-04-28T04:55:18.510Z,1516.00
2018-04-28T04:56:18.492Z,1556.00
2018-04-28T04:57:18.488Z,1588.00
2018-04-28T04:58:18.459Z,1612.00
2018-04-28T04:59:18.450Z,1624.00
2018-04-28T05:00:18.430Z,1636.00
2018-04-28T05:01:18.418Z,1644.00
2018-04-28T05:02:18.396Z,1648.00
2018-04-28T05:03:18.378Z,1656.00
2018-04-28T05:04:18.363Z,1688.00
2018-04-28T05:05:18.350Z,1724.00
2018-04-28T05:06:18.331Z,1776.00
2018-04-28T05:07:18.320Z,1824.00
2018-04-28T05:08:18.300Z,1864.00
2018-04-28T05:09:18.291Z,1900.00
2018-04-28T05:10:18.269Z,1948.00
2018-04-28T05:11:18.254Z,1964.00
2018-04-28T05:12:18.241Z,1960.00
2018-04-28T05:13:18.220Z,1968.00
2018-04-28T05:14:18.206Z,1988.00
2018-04-28T05:15:18.191Z,2024.00
2018-04-28T05:16:18.180Z,2076.00
2018-04-28T05:17:18.159Z,2128.00
2018-04-28T05:18:18.143Z,2196.00
2018-04-28T05:19:18.130Z,2260.00
2018-04-28T05:20:18.109Z,2336.00
2018-04-28T05:21:18.099Z,2416.00
2018-04-28T05:22:18.079Z,2496.00
2018-04-28T05:23:18.068Z,2592.00
2018-04-28T05:24:18.049Z,2672.00
2018-04-28T05:25:18.048Z,2724.00
2018-04-28T05:26:18.021Z,2764.00
2018-04-28T05:27:18.004Z,2828.00
2018-04-28T05:28:18.005Z,2900.00
2018-04-28T05:29:17.971Z,2980.00
2018-04-28T05:30:17.967Z,3060.00
2018-04-28T05:31:17.939Z,3172.00
2018-04-28T05:32:17.929Z,3228.00
2018-04-28T05:33:17.909Z,3240.00
2018-04-28T05:34:17.898Z,3216.00
2018-04-28T05:35:17.879Z,3156.00
2018-04-28T05:36:17.871Z,3112.00
2018-04-28T05:37:17.849Z,3152.00
2018-04-28T05:38:17.833Z,3240.00
2018-04-28T05:39:17.819Z,3332.00
2018-04-28T05:40:17.815Z,3380.00
2018-04-28T05:41:17.789Z,3396.00
2018-04-28T05:42:17.780Z,3400.00
2018-04-28T05:43:17.760Z,3476.00
2018-04-28T05:44:17.749Z,3564.00
2018-04-28T05:45:17.733Z,3672.00
2018-04-28T05:46:17.720Z,3784.00
2018-04-28T05:47:17.699Z,3892.00
2018-04-28T05:48:17.745Z,4040.00
2018-04-28T05:49:17.670Z,4216.00
2018-04-28T05:50:17.654Z,4296.00
2018-04-28T05:51:17.641Z,4276.00
2018-04-28T05:52:17.625Z,4168.00
2018-04-28T05:53:17.609Z,4108.00
2018-04-28T05:54:17.593Z,4160.00
2018-04-28T05:55:17.583Z,4200.00
2018-04-28T05:56:17.567Z,4236.00
2018-04-28T05:57:17.548Z,4288.00
2018-04-28T05:58:17.535Z,4408.00
2018-04-28T05:59:17.519Z,4584.00
2018-04-28T06:00:17.509Z,4752.00
2018-04-28T06:01:17.490Z,4936.00
2018-04-28T06:02:17.488Z,5168.00
2018-04-28T06:03:17.518Z,5340.00
2018-04-28T06:04:17.451Z,5328.00
2018-04-28T06:05:17.430Z,5252.00
2018-04-28T06:06:17.417Z,5052.00
2018-04-28T06:07:17.409Z,4976.00
2018-04-28T06:08:17.392Z,4928.00
2018-04-28T06:09:17.385Z,4996.00
2018-04-28T06:10:17.364Z,5056.00
2018-04-28T06:11:17.350Z,5252.00
2018-04-28T06:12:17.333Z,5212.00
2018-04-28T06:13:17.321Z,5376.00
2018-04-28T06:14:17.315Z,5548.00
2018-04-28T06:15:17.296Z,5816.00
2018-04-28T06:16:17.286Z,6140.00
2018-04-28T06:17:17.261Z,6352.00
2018-04-28T06:18:17.252Z,6552.00
2018-04-28T06:19:17.231Z,6736.00
2018-04-28T06:20:17.251Z,6844.00
2018-04-28T06:21:17.212Z,6752.00
2018-04-28T06:22:17.191Z,6396.00
2018-04-28T06:23:17.181Z,5964.00
2018-04-28T06:24:17.160Z,5308.00
2018-04-28T06:25:17.150Z,4872.00
2018-04-28T06:26:17.140Z,4520.00
2018-04-28T06:27:17.144Z,4384.00
2018-04-28T06:28:17.109Z,4208.00
2018-04-28T06:29:17.092Z,4116.00
2018-04-28T06:30:17.085Z,4208.00
2018-04-28T06:31:17.060Z,4388.00
2018-04-28T06:32:17.103Z,4500.00
2018-04-28T06:33:17.039Z,4832.00
2018-04-28T06:34:17.022Z,5116.00
2018-04-28T06:35:17.019Z,5396.00
2018-04-28T06:36:17.045Z,5832.00
2018-04-28T06:37:16.983Z,6024.00
2018-04-28T06:38:16.974Z,6084.00
2018-04-28T06:39:16.965Z,6184.00
2018-04-28T06:40:16.943Z,6292.00
2018-04-28T06:41:16.992Z,6668.00
2018-04-28T06:42:16.911Z,7260.00
2018-04-28T06:43:16.899Z,7964.00
2018-04-28T06:44:16.884Z,8120.00
2018-04-28T06:45:16.868Z,8244.00
2018-04-28T06:46:16.860Z,8224.00
2018-04-28T06:47:16.845Z,8340.00
2018-04-28T06:48:16.831Z,8516.00
2018-04-28T06:49:16.816Z,8552.00
2018-04-28T06:50:16.799Z,8532.00
2018-04-28T06:51:16.796Z,8440.00
2018-04-28T06:52:16.774Z,8624.00
2018-04-28T06:53:16.761Z,9004.00
2018-04-28T06:54:16.747Z,9120.00
2018-04-28T06:55:16.733Z,10096.00
2018-04-28T06:56:16.721Z,10556.00
2018-04-28T06:57:16.706Z,10912.00
2018-04-28T06:58:16.695Z,11128.00
2018-04-28T06:59:16.681Z,10752.00
2018-04-28T07:00:16.682Z,9820.00
2018-04-28T07:01:16.658Z,9724.00
2018-04-28T07:02:16.641Z,9192.00
2018-04-28T07:03:16.631Z,9032.00
2018-04-28T07:04:16.619Z,9068.00
2018-04-28T07:05:16.603Z,9496.00
2018-04-28T07:06:16.591Z,9876.00
2018-04-28T07:07:16.589Z,9612.00
2018-04-28T07:08:16.572Z,9952.00
2018-04-28T07:09:16.550Z,10360.00
2018-04-28T07:10:16.539Z,10868.00
2018-04-28T07:11:16.531Z,11108.00
2018-04-28T07:12:16.516Z,11596.00
2018-04-28T07:13:16.500Z,11960.00
2018-04-28T07:14:16.488Z,12716.00
2018-04-28T07:15:16.477Z,13996.00
2018-04-28T07:16:16.471Z,15144.00
2018-04-28T07:17:16.452Z,17600.00
2018-04-28T07:18:16.445Z,16544.00
2018-04-28T07:19:16.437Z,17056.00
2018-04-28T07:20:16.421Z,17024.00
2018-04-28T07:21:16.413Z,18816.00
2018-04-28T07:22:16.400Z,15904.00
2018-04-28T07:23:16.398Z,18912.00
2018-04-28T07:24:16.376Z,8792.00
2018-04-28T07:25:16.421Z,8944.00
2018-04-28T07:26:16.360Z,7024.00
2018-04-28T07:27:16.347Z,6228.00
2018-04-28T07:28:16.339Z,6308.00
2018-04-28T07:29:16.407Z,6080.00
2018-04-28T07:30:16.308Z,6632.00
2018-04-28T07:31:16.296Z,7436.00
2018-04-28T07:32:16.282Z,29696.00
2018-04-28T07:33:16.274Z,56192.00
2018-04-28T07:34:16.259Z,55008.00
2018-04-28T07:35:16.319Z,62144.00
2018-04-28T07:36:16.242Z,62432.00
2018-04-28T07:37:16.228Z,60160.00
2018-04-28T07:38:16.220Z,64832.00
2018-04-28T07:39:16.210Z,63712.00
2018-04-28T07:40:16.205Z,69152.00
2018-04-28T07:41:16.191Z,71296.00
2018-04-28T07:42:16.209Z,72960.00
2018-04-28T07:43:16.180Z,79104.00
2018-04-28T07:44:16.174Z,56384.00
2018-04-28T07:45:16.164Z,64544.00
2018-04-28T07:46:16.158Z,59040.00
2018-04-28T07:47:16.150Z,23296.00
2018-04-28T07:48:16.148Z,17792.00
2018-04-28T07:49:16.143Z,18080.00
2018-04-28T07:50:16.134Z,19936.00
2018-04-28T07:51:16.128Z,22304.00
2018-04-28T07:52:16.119Z,24864.00
2018-04-28T07:53:16.122Z,24096.00
2018-04-28T07:54:16.107Z,25632.00
2018-04-28T07:55:16.100Z,29440.00
2018-04-28T07:56:16.097Z,26336.00
2018-04-28T07:57:16.088Z,37760.00
2018-04-28T07:58:16.080Z,37056.00
2018-04-28T07:59:16.071Z,52704.00
2018-04-28T08:00:16.138Z,59680.00
2018-04-28T08:01:16.064Z,52096.00
2018-04-28T08:02:16.049Z,29536.00
2018-04-28T08:03:16.056Z,30176.00
2018-04-28T08:04:16.039Z,39680.00
2018-04-28T08:05:16.044Z,28352.00
2018-04-28T08:06:16.027Z,31776.00
2018-04-28T08:07:16.019Z,40640.00
2018-04-28T08:08:16.013Z,12056.00
2018-04-28T08:09:16.004Z,8156.00
2018-04-28T08:10:16.001Z,11852.00
2018-04-28T08:11:15.986Z,13504.00
2018-04-28T08:12:15.980Z,8728.00
2018-04-28T08:13:15.971Z,13968.00
2018-04-28T08:14:15.965Z,7128.00
2018-04-28T08:15:16.014Z,7340.00
2018-04-28T08:16:15.953Z,5076.00
2018-04-28T08:17:15.941Z,4268.00
2018-04-28T08:18:15.930Z,4100.00
2018-04-28T08:19:15.922Z,3864.00
2018-04-28T08:20:15.907Z,4244.00
2018-04-28T08:21:15.900Z,4292.00
2018-04-28T08:22:15.891Z,3744.00
2018-04-28T08:23:15.881Z,3512.00
2018-04-28T08:24:15.872Z,3288.00
2018-04-28T08:25:15.853Z,3044.00
2018-04-28T08:26:15.847Z,2916.00
2018-04-28T08:27:15.834Z,2960.00
2018-04-28T08:28:15.830Z,3276.00
2018-04-28T08:29:15.815Z,3128.00
2018-04-28T08:30:15.802Z,2880.00
2018-04-28T08:31:15.791Z,2844.00
2018-04-28T08:32:15.830Z,2844.00
2018-04-28T08:33:15.774Z,2788.00
2018-04-28T08:34:15.755Z,2632.00
2018-04-28T08:35:15.748Z,2464.00
2018-04-28T08:36:15.732Z,2624.00
2018-04-28T08:37:15.811Z,2728.00
2018-04-28T08:38:15.709Z,3000.00
2018-04-28T08:39:15.711Z,3240.00
2018-04-28T08:40:15.685Z,3392.00
2018-04-28T08:41:15.670Z,3684.00
2018-04-28T08:42:15.656Z,3884.00
2018-04-28T08:43:15.648Z,4032.00
2018-04-28T08:44:15.690Z,4328.00
2018-04-28T08:45:15.670Z,4508.00
2018-04-28T08:46:15.610Z,4752.00
2018-04-28T08:47:15.595Z,5048.00
2018-04-28T08:48:15.594Z,5444.00
2018-04-28T08:49:15.568Z,5576.00
2018-04-28T08:50:15.561Z,5604.00
2018-04-28T08:51:15.553Z,5656.00
2018-04-28T08:52:15.609Z,5948.00
2018-04-28T08:53:15.520Z,6108.00
2018-04-28T08:54:15.510Z,6380.00
2018-04-28T08:55:15.497Z,6956.00
2018-04-28T08:56:15.488Z,8060.00
2018-04-28T08:57:15.475Z,8768.00
2018-04-28T08:58:15.459Z,11208.00
2018-04-28T08:59:15.496Z,11324.00
2018-04-28T09:00:15.439Z,12744.00
2018-04-28T09:01:15.436Z,13580.00
2018-04-28T09:02:15.409Z,16896.00
2018-04-28T09:03:15.397Z,13804.00
2018-04-28T09:04:15.389Z,16608.00
2018-04-28T09:05:15.377Z,24672.00
2018-04-28T09:06:15.368Z,15592.00
2018-04-28T09:07:15.363Z,9720.00
2018-04-28T09:08:15.348Z,26976.00
2018-04-28T09:09:15.341Z,14696.00
2018-04-28T09:10:15.342Z,26528.00
2018-04-28T09:11:15.312Z,25216.00
2018-04-28T09:12:15.303Z,53600.00
2018-04-28T09:13:15.386Z,60704.00
2018-04-28T09:14:15.271Z,47584.00
2018-04-28T09:15:15.322Z,58976.00
2018-04-28T09:16:15.254Z,38976.00
2018-04-28T09:17:15.249Z,52512.00
2018-04-28T09:18:15.235Z,46176.00
2018-04-28T09:19:15.342Z,51712.00
2018-04-28T09:20:15.222Z,52960.00
2018-04-28T09:21:15.314Z,45408.00
2018-04-28T09:22:15.198Z,43296.00
2018-04-28T09:23:15.204Z,35488.00
2018-04-28T09:24:15.190Z,34112.00
2018-04-28T09:25:15.177Z,35776.00
2018-04-28T09:26:15.183Z,33504.00
2018-04-28T09:27:15.160Z,28608.00
2018-04-28T09:28:15.159Z,23072.00
2018-04-28T09:29:15.147Z,31168.00
2018-04-28T09:30:15.140Z,26976.00
2018-04-28T09:31:15.138Z,21536.00
2018-04-28T09:32:15.129Z,19872.00
2018-04-28T09:33:15.135Z,15140.00
2018-04-28T09:34:15.111Z,16480.00
2018-04-28T09:35:15.112Z,16704.00
2018-04-28T09:36:15.148Z,16576.00
2018-04-28T09:37:15.093Z,17792.00
2018-04-28T09:38:15.085Z,15456.00
2018-04-28T09:39:15.083Z,16352.00
2018-04-28T09:40:15.072Z,16384.00
2018-04-28T09:41:15.079Z,15296.00
2018-04-28T09:42:15.062Z,15936.00
2018-04-28T09:43:15.062Z,15136.00
2018-04-28T09:44:15.045Z,15648.00
2018-04-28T09:45:15.033Z,15136.00
2018-04-28T09:46:15.023Z,13688.00
2018-04-28T09:47:15.018Z,13236.00
2018-04-28T09:48:15.013Z,12420.00
2018-04-28T09:49:14.996Z,13524.00
2018-04-28T09:50:14.988Z,12524.00
2018-04-28T09:51:14.985Z,11632.00
2018-04-28T09:52:14.979Z,11636.00
2018-04-28T09:53:14.965Z,11644.00
2018-04-28T09:54:14.960Z,12072.00
2018-04-28T09:55:14.959Z,11984.00
2018-04-28T09:56:14.940Z,10788.00
2018-04-28T09:57:14.933Z,9124.00
2018-04-28T09:58:14.925Z,7248.00
2018-04-28T09:59:14.922Z,6132.00
2018-04-28T10:00:14.919Z,5264.00
2018-04-28T10:01:14.903Z,5120.00
2018-04-28T10:02:14.890Z,5456.00
2018-04-28T10:03:14.877Z,4980.00
2018-04-28T10:04:14.871Z,4640.00
2018-04-28T10:05:14.871Z,4040.00
2018-04-28T10:06:14.852Z,4088.00
2018-04-28T10:07:14.854Z,4588.00
2018-04-28T10:08:14.829Z,5212.00
2018-04-28T10:09:14.823Z,6164.00
2018-04-28T10:10:14.832Z,6192.00
2018-04-28T10:11:14.802Z,6600.00
2018-04-28T10:12:14.790Z,6896.00
2018-04-28T10:13:14.795Z,6956.00
2018-04-28T10:14:14.770Z,6984.00
2018-04-28T10:15:14.762Z,7216.00
2018-04-28T10:16:14.761Z,7436.00
2018-04-28T10:17:14.739Z,7588.00
2018-04-28T10:18:14.782Z,7112.00
2018-04-28T10:19:14.719Z,6648.00
2018-04-28T10:20:14.815Z,6192.00
2018-04-28T10:21:14.702Z,6032.00
2018-04-28T10:22:14.685Z,6024.00
2018-04-28T10:23:14.683Z,5836.00
2018-04-28T10:24:14.689Z,5284.00
2018-04-28T10:25:14.653Z,4796.00
2018-04-28T10:26:14.663Z,4356.00
2018-04-28T10:27:14.640Z,4000.00
2018-04-28T10:28:14.621Z,4072.00
2018-04-28T10:29:14.615Z,4460.00
2018-04-28T10:30:14.602Z,5228.00
2018-04-28T10:31:14.592Z,7032.00
2018-04-28T10:32:14.586Z,7484.00
2018-04-28T10:33:14.584Z,6756.00
2018-04-28T10:34:14.562Z,6896.00
2018-04-28T10:35:14.554Z,6776.00
2018-04-28T10:36:14.537Z,6724.00
2018-04-28T10:37:14.523Z,6584.00
2018-04-28T10:38:14.525Z,6240.00
2018-04-28T10:39:14.502Z,5936.00
2018-04-28T10:40:14.492Z,5772.00
2018-04-28T10:41:14.490Z,5628.00
2018-04-28T10:42:14.474Z,5468.00
2018-04-28T10:43:14.471Z,5452.00
2018-04-28T10:44:14.449Z,5436.00
2018-04-28T10:45:14.440Z,5244.00
2018-04-28T10:46:14.432Z,5004.00
2018-04-28T10:47:14.410Z,4980.00
2018-04-28T10:48:14.410Z,4808.00
2018-04-28T10:49:14.393Z,4792.00
2018-04-28T10:50:14.379Z,4756.00
2018-04-28T10:51:14.380Z,4752.00
2018-04-28T10:52:14.357Z,4868.00
2018-04-28T10:53:14.355Z,4876.00
2018-04-28T10:54:14.332Z,4660.00
2018-04-28T10:55:14.413Z,4500.00
2018-04-28T10:56:14.311Z,4608.00
2018-04-28T10:57:14.297Z,4864.00
2018-04-28T10:58:14.287Z,5088.00
2018-04-28T10:59:14.431Z,5720.00
2018-04-28T11:00:14.271Z,5824.00
2018-04-28T11:01:14.311Z,5772.00
2018-04-28T11:02:14.241Z,6056.00
2018-04-28T11:03:14.242Z,6484.00
2018-04-28T11:04:14.221Z,6780.00
2018-04-28T11:05:14.205Z,7180.00
2018-04-28T11:06:14.271Z,7620.00
2018-04-28T11:07:14.187Z,8556.00
2018-04-28T11:08:14.171Z,8176.00
2018-04-28T11:09:14.212Z,8060.00
2018-04-28T11:10:14.149Z,7736.00
2018-04-28T11:11:14.141Z,9888.00
2018-04-28T11:12:14.127Z,7180.00
2018-04-28T11:13:14.176Z,7000.00
2018-04-28T11:14:14.102Z,6100.00
2018-04-28T11:15:14.091Z,5456.00
2018-04-28T11:16:14.083Z,5296.00
2018-04-28T11:17:14.069Z,5048.00
2018-04-28T11:18:14.062Z,4376.00
2018-04-28T11:19:14.049Z,4104.00
2018-04-28T11:20:14.038Z,4156.00
2018-04-28T11:21:14.030Z,4124.00
2018-04-28T11:22:14.012Z,4116.00
2018-04-28T11:23:14.002Z,3640.00
2018-04-28T11:24:14.000Z,3268.00
2018-04-28T11:25:13.984Z,3464.00
2018-04-28T11:26:13.967Z,3732.00
2018-04-28T11:27:13.961Z,4060.00
2018-04-28T11:28:13.946Z,4312.00
2018-04-28T11:29:13.933Z,4488.00
2018-04-28T11:30:13.919Z,4620.00
2018-04-28T11:31:13.912Z,4716.00
2018-04-28T11:32:13.906Z,4856.00
2018-04-28T11:33:13.893Z,5096.00
2018-04-28T11:34:13.880Z,5332.00
2018-04-28T11:35:13.860Z,5288.00
2018-04-28T11:36:13.848Z,5128.00
2018-04-28T11:37:13.849Z,4964.00
2018-04-28T11:38:13.920Z,4952.00
2018-04-28T11:39:13.819Z,5096.00
2018-04-28T11:40:13.807Z,5396.00
2018-04-28T11:41:13.790Z,5760.00
2018-04-28T11:42:13.781Z,6244.00
2018-04-28T11:43:13.774Z,6764.00
2018-04-28T11:44:13.773Z,7212.00
2018-04-28T11:45:13.748Z,7364.00
2018-04-28T11:46:13.740Z,7456.00
2018-04-28T11:47:13.724Z,7424.00
2018-04-28T11:48:13.715Z,7584.00
2018-04-28T11:49:13.711Z,7984.00
2018-04-28T11:50:13.700Z,8176.00
2018-04-28T11:51:13.681Z,8180.00
2018-04-28T11:52:13.665Z,8044.00
2018-04-28T11:53:13.740Z,8040.00
2018-04-28T11:54:13.649Z,8336.00
2018-04-28T11:55:13.644Z,6476.00
2018-04-28T11:56:13.620Z,6252.00
2018-04-28T11:57:13.615Z,6100.00
2018-04-28T11:58:13.605Z,6184.00
2018-04-28T11:59:13.603Z,6292.00
2018-04-28T12:00:13.580Z,6204.00
2018-04-28T12:01:13.568Z,6016.00
2018-04-28T12:02:13.560Z,6132.00
2018-04-28T12:03:13.551Z,6116.00
2018-04-28T12:04:13.541Z,5996.00
2018-04-28T12:05:13.567Z,5776.00
2018-04-28T12:06:13.509Z,5828.00
2018-04-28T12:07:13.550Z,6296.00
2018-04-28T12:08:13.499Z,7308.00
2018-04-28T12:09:13.480Z,6040.00
2018-04-28T12:10:13.467Z,5748.00
2018-04-28T12:11:13.460Z,5368.00
2018-04-28T12:12:13.444Z,5072.00
2018-04-28T12:13:13.433Z,4728.00
2018-04-28T12:14:13.423Z,4652.00
2018-04-28T12:15:13.424Z,4552.00
2018-04-28T12:16:13.411Z,4228.00
2018-04-28T12:17:13.388Z,4108.00
2018-04-28T12:18:13.374Z,4016.00
2018-04-28T12:19:13.362Z,3996.00
2018-04-28T12:20:13.357Z,3980.00
2018-04-28T12:21:13.340Z,3924.00
2018-04-28T12:22:13.330Z,3976.00
2018-04-28T12:23:13.317Z,4096.00
2018-04-28T12:24:13.310Z,4396.00